Allamuchy, New Jersey
Current Conditions -  °F | °C
As of 8:53 AM on Friday 24 Oct 2014 (Local Time) from KFWN Reporting Station
Overcast Overcast  
Wind Chill: 53°   Ceiling: 2600
Heat Index: 53°   Visibility: 10mi
Dew Point: 42°   Wind: 7mph
Humidity: 66%   Direction: NA
Pressure: 29.86"   Gusts: 20mph
Location:  40.92°N, 74.81°W
Report Text: KFWN 241253Z AUTO VRB06G17KT 10SM OVC026 12/06 A2986 RMK AO2 SLP110 T01170056
Loading
Personal Weather Stations






























Interactive Weather Map New forecast layout! Learn more

10-Day Weather Forecast

Advertisements
Track Severe Weather on mobile